This is the latest recevied weather packets stored in our database for station/object OH2HCY-3. If no packets are shown the sender has not sent any weather packets the latest 10 day(s).
| Time | Temp. | Humidity | Pressure | Rain* | Wind** | Luminosity | Snow |
|---|---|---|---|---|---|---|---|
| 1777673165 | 3.89° C | 85% | 1014.8 hPa | - | - | - | - |
| 1777672037 | 4.44° C | 83% | 1015.1 hPa | - | - | - | - |
| 1777670865 | 5° C | 80% | 1015.2 hPa | - | - | - | - |
| 1777669880 | 5.56° C | 80% | 1015.3 hPa | - | - | - | - |
| 1777668803 | 5.56° C | 80% | 1015.5 hPa | - | - | - | - |
| 1777667790 | 5.56° C | 79% | 1015.7 hPa | - | - | - | - |
| 1777667787 | 5.56° C | 79% | - | - | - | - | - |
| 1777667785 | 5.56° C | 79% | 1015.7 hPa | - | - | - | - |
| 1777666820 | 6.11° C | 79% | 1016 hPa | - | - | - | - |
| 1777665634 | 6.11° C | 77% | 1016 hPa | - | - | - | - |
| 1777664469 | 6.67° C | 75% | 1016.1 hPa | - | - | - | - |
| 1777663300 | 6.67° C | 75% | 1016.2 hPa | - | - | - | - |
| 1777662205 | 6.67° C | 74% | 1016.4 hPa | - | - | - | - |
| 1777661220 | 7.22° C | 72% | 1016.4 hPa | - | - | - | - |
| 1777660236 | 7.78° C | 68% | - | - | - | - | - |
| 1777660230 | 7.78° C | 68% | 1016.6 hPa | - | - | - | - |
| 1777659075 | 9.44° C | 62% | 1016.6 hPa | - | - | - | - |
| 1777658073 | 10° C | 60% | 1016.7 hPa | - | - | - | - |
| 1777656909 | 10.56° C | 58% | 1016.9 hPa | - | - | - | - |
| 1777655860 | 11.11° C | 56% | 1016.9 hPa | - | - | - | - |
| 1777654707 | - | 55% | 1016.9 hPa | - | - | - | - |
| 1777654700 | 12.22° C | 55% | 1016.9 hPa | - | - | - | - |
| 1777653655 | 12.78° C | 53% | 1017.1 hPa | - | - | - | - |
| 1777652659 | 12.78° C | 51% | 1017.3 hPa | - | - | - | - |
| 1777651493 | 13.33° C | 50% | 1017.4 hPa | - | - | - | - |
* Rain since midnight (hover to see other rain measurements)
** Current wind speed in m/s (hover to see current wind gust speed)